Time;durP1;ratioP1;P1;durP2;ratioP2;P2;SDS_P1;SDS_P2;PMS_P1;PMS_P2;Temp;Humidity;BMP_temperature;BMP_pressure;BME280_temperature;BME280_humidity;BME280_pressure;Samples;Min_cycle;Max_cycle;Signal;HPM_P1;HPM_P2
2021/06/26 00:00:31;;;;;;;4.10;3.38;;;22.10;61.70;;;;;;5071641;28;20102;-73
2021/06/26 00:03:15;;;;;;;4.63;3.47;;;22.10;61.70;;;;;;5070491;28;20086;-73
2021/06/26 00:05:59;;;;;;;4.33;3.43;;;22.10;61.90;;;;;;5071221;28;20056;-73
2021/06/26 00:08:43;;;;;;;4.47;3.40;;;22.10;62.20;;;;;;5076134;28;20156;-73
2021/06/26 00:11:28;;;;;;;4.37;3.37;;;22.10;62.40;;;;;;5073483;28;20035;-73
2021/06/26 00:14:12;;;;;;;6.97;3.60;;;22.10;62.60;;;;;;5070348;28;20070;-73
2021/06/26 00:16:56;;;;;;;6.13;3.83;;;22.00;62.70;;;;;;5071262;28;20404;-74
2021/06/26 00:19:41;;;;;;;6.28;3.60;;;22.00;63.00;;;;;;5055370;28;20044;-74
2021/06/26 00:22:25;;;;;;;4.80;3.97;;;21.90;63.10;;;;;;5051670;28;20060;-74
2021/06/26 00:25:09;;;;;;;4.90;3.55;;;21.90;63.30;;;;;;5074584;28;20634;-73
2021/06/26 00:27:53;;;;;;;6.93;3.90;;;21.90;63.50;;;;;;5073137;28;20035;-74
2021/06/26 00:30:38;;;;;;;7.20;3.95;;;21.90;63.60;;;;;;5040223;28;20488;-73
2021/06/26 00:33:22;;;;;;;5.15;3.55;;;21.90;63.80;;;;;;5061103;28;20058;-72
2021/06/26 00:36:06;;;;;;;5.28;3.92;;;21.90;64.00;;;;;;5095026;28;20047;-72
2021/06/26 00:38:50;;;;;;;4.68;3.90;;;21.80;64.20;;;;;;5072696;28;20570;-72
2021/06/26 00:41:34;;;;;;;4.30;3.53;;;21.80;64.50;;;;;;5059843;28;20113;-72
2021/06/26 00:44:18;;;;;;;5.10;3.78;;;21.80;64.70;;;;;;5069334;28;20047;-73
2021/06/26 00:47:10;;;;;;;4.32;3.80;;;21.70;64.80;;;;;;5094972;28;20127;-72
2021/06/26 00:49:55;;;;;;;4.45;3.63;;;21.70;65.10;;;;;;5060822;28;20043;-71
2021/06/26 00:52:39;;;;;;;4.65;3.80;;;21.70;65.30;;;;;;5075009;28;20043;-71
2021/06/26 00:55:23;;;;;;;5.82;4.05;;;21.70;65.50;;;;;;5094668;28;20047;-71
2021/06/26 00:58:07;;;;;;;6.25;4.55;;;21.60;65.60;;;;;;5091449;28;20043;-71
2021/06/26 01:00:52;;;;;;;6.40;4.90;;;21.60;65.80;;;;;;5095405;28;20039;-71
2021/06/26 01:03:36;;;;;;;5.95;3.85;;;21.50;66.80;;;;;;5089611;28;20293;-71
2021/06/26 01:06:21;;;;;;;6.18;4.80;;;21.50;66.50;;;;;;5095067;28;20518;-71
2021/06/26 01:09:05;;;;;;;5.18;4.28;;;21.50;66.70;;;;;;5083468;28;20438;-71
2021/06/26 01:11:49;;;;;;;5.22;4.25;;;21.40;67.10;;;;;;5094656;28;20502;-72
2021/06/26 01:14:33;;;;;;;5.80;4.50;;;21.30;67.30;;;;;;5077082;28;20327;-72
2021/06/26 01:17:19;;;;;;;7.90;5.20;;;21.30;67.60;;;;;;5074316;28;20081;-72
2021/06/26 01:20:07;;;;;;;6.82;4.22;;;21.30;67.90;;;;;;5073275;28;20038;-72
2021/06/26 01:22:55;;;;;;;6.93;5.00;;;21.20;68.30;;;;;;5058403;28;20085;-71
2021/06/26 01:25:39;;;;;;;5.18;4.57;;;21.10;68.50;;;;;;5054873;28;20091;-71
2021/06/26 01:28:24;;;;;;;5.63;4.80;;;21.20;68.90;;;;;;5062110;28;20058;-72
2021/06/26 01:31:08;;;;;;;6.85;4.90;;;21.10;69.00;;;;;;5094516;28;20145;-71
2021/06/26 01:33:52;;;;;;;7.40;4.78;;;21.10;69.30;;;;;;5084551;28;20576;-71
2021/06/26 01:36:36;;;;;;;7.25;4.63;;;21.00;69.50;;;;;;5054617;28;20055;-72
2021/06/26 01:39:20;;;;;;;5.83;4.90;;;21.00;69.70;;;;;;5061547;28;20028;-72
2021/06/26 01:42:05;;;;;;;8.38;5.03;;;20.90;69.90;;;;;;5072707;28;20325;-72
2021/06/26 01:44:50;;;;;;;8.23;5.03;;;20.90;70.00;;;;;;5073907;28;20047;-72
2021/06/26 01:47:34;;;;;;;7.50;5.13;;;20.90;70.40;;;;;;5078838;28;20101;-72
2021/06/26 01:50:20;;;;;;;7.18;5.20;;;20.90;70.60;;;;;;5094036;28;20054;-73
2021/06/26 01:53:04;;;;;;;6.93;4.78;;;20.80;70.90;;;;;;5090893;28;20034;-71
2021/06/26 01:55:51;;;;;;;6.35;5.03;;;20.80;71.40;;;;;;5094025;28;20511;-73
2021/06/26 01:58:36;;;;;;;10.93;5.15;;;20.70;71.70;;;;;;5076140;28;20067;-70
2021/06/26 02:01:20;;;;;;;11.80;5.90;;;20.70;72.20;;;;;;5093916;28;20097;-72
2021/06/26 02:04:04;;;;;;;8.48;5.18;;;20.60;72.20;;;;;;5072496;28;20420;-74
2021/06/26 02:06:49;;;;;;;6.95;6.07;;;20.60;72.30;;;;;;5072145;28;20067;-73
2021/06/26 02:09:33;;;;;;;8.67;5.57;;;20.60;72.60;;;;;;5092976;28;20101;-74
2021/06/26 02:12:17;;;;;;;8.30;5.97;;;20.50;72.90;;;;;;5089853;28;20289;-74
2021/06/26 02:15:01;;;;;;;7.67;5.77;;;20.50;73.20;;;;;;5093523;28;20035;-74
2021/06/26 02:17:44;;;;;;;7.37;5.13;;;20.50;74.00;;;;;;5064770;28;20468;-74
2021/06/26 02:20:28;;;;;;;7.33;4.83;;;20.50;74.10;;;;;;5073414;28;20123;-73
2021/06/26 02:23:12;;;;;;;7.73;5.30;;;20.50;73.90;;;;;;5084245;28;20039;-72
2021/06/26 02:25:56;;;;;;;5.97;4.87;;;20.50;74.10;;;;;;5093276;28;20354;-72
2021/06/26 02:28:40;;;;;;;6.87;5.57;;;20.50;74.30;;;;;;5074768;28;20054;-71
2021/06/26 02:31:24;;;;;;;6.65;5.03;;;20.40;74.40;;;;;;5073198;28;20408;-72
2021/06/26 02:34:12;;;;;;;7.43;5.03;;;20.40;74.70;;;;;;5092302;28;20042;-71
2021/06/26 02:36:57;;;;;;;9.48;5.20;;;20.40;75.00;;;;;;5074595;28;20412;-72
2021/06/26 02:39:41;;;;;;;7.90;5.10;;;20.40;75.40;;;;;;5057836;28;20048;-71
2021/06/26 02:42:25;;;;;;;6.70;5.87;;;20.40;75.50;;;;;;5076710;28;20054;-71
2021/06/26 02:45:10;;;;;;;6.82;4.88;;;20.40;75.80;;;;;;5092918;28;20039;-71
2021/06/26 02:47:54;;;;;;;;;;;20.30;75.90;;;;;;5073935;28;20513;-71
2021/06/26 02:50:39;;;;;;;9.23;5.55;;;20.30;75.00;;;;;;5093054;28;19923;-71
2021/06/26 02:53:23;;;;;;;7.38;5.20;;;20.30;75.90;;;;;;5089422;28;20093;-72
2021/06/26 02:56:07;;;;;;;6.87;5.43;;;20.30;76.20;;;;;;5077189;28;20051;-72
2021/06/26 02:58:51;;;;;;;7.23;5.20;;;20.30;76.40;;;;;;5052171;28;20036;-72
2021/06/26 03:01:35;;;;;;;7.93;5.30;;;20.30;76.70;;;;;;5037036;28;20124;-72
2021/06/26 03:04:19;;;;;;;6.87;5.97;;;20.30;76.90;;;;;;5052086;28;20101;-72
2021/06/26 03:07:03;;;;;;;6.68;5.50;;;20.20;77.40;;;;;;5055436;28;20285;-72
2021/06/26 03:09:47;;;;;;;6.97;5.50;;;20.30;77.70;;;;;;5071917;28;20417;-72
2021/06/26 03:12:31;;;;;;;8.70;5.30;;;20.20;77.80;;;;;;5076978;28;20411;-72
2021/06/26 03:15:16;;;;;;;6.95;5.53;;;20.20;78.00;;;;;;5092391;28;20034;-73
2021/06/26 03:18:00;;;;;;;5.82;5.13;;;20.20;78.30;;;;;;5078876;28;20515;-72
2021/06/26 03:20:45;;;;;;;5.97;4.78;;;20.20;78.40;;;;;;5072068;28;20070;-73
2021/06/26 03:23:30;;;;;;;6.73;5.03;;;20.20;78.60;;;;;;5084519;28;20054;-72
2021/06/26 03:26:14;;;;;;;6.85;5.28;;;20.20;78.90;;;;;;5092053;28;20065;-72
2021/06/26 03:28:58;;;;;;;10.63;5.07;;;20.20;79.70;;;;;;5078660;28;20042;-72
2021/06/26 03:31:42;;;;;;;7.03;5.18;;;20.20;79.40;;;;;;5089942;28;20039;-72
2021/06/26 03:34:26;;;;;;;7.53;5.53;;;20.20;79.70;;;;;;5072105;28;20534;-73
2021/06/26 03:37:10;;;;;;;7.57;5.60;;;20.20;80.00;;;;;;5072368;28;20628;-73
2021/06/26 03:39:55;;;;;;;8.07;5.45;;;20.20;80.40;;;;;;5092124;28;20447;-72
2021/06/26 03:42:39;;;;;;;7.78;5.60;;;20.20;80.40;;;;;;5082006;28;20075;-72
2021/06/26 03:45:25;;;;;;;7.20;5.70;;;20.30;80.60;;;;;;5067811;28;20090;-72
2021/06/26 03:48:11;;;;;;;8.45;6.05;;;20.20;80.60;;;;;;5081154;28;20028;-73
2021/06/26 03:50:59;;;;;;;8.10;5.53;;;20.20;80.90;;;;;;5090789;28;20035;-72
2021/06/26 03:53:46;;;;;;;9.57;5.65;;;20.30;81.20;;;;;;5086736;28;20400;-73
2021/06/26 03:56:32;;;;;;;8.23;5.82;;;20.30;81.20;;;;;;5089268;28;20032;-72
2021/06/26 03:59:18;;;;;;;8.00;6.03;;;20.30;81.50;;;;;;5066794;28;20035;-72
2021/06/26 04:02:06;;;;;;;9.13;6.05;;;20.30;81.70;;;;;;5084753;28;20488;-72
2021/06/26 04:04:52;;;;;;;9.82;5.93;;;20.30;81.70;;;;;;5070334;28;20570;-76
2021/06/26 04:07:38;;;;;;;7.13;6.03;;;20.30;82.00;;;;;;5068775;28;20031;-76
2021/06/26 04:10:26;;;;;;;9.25;6.35;;;20.40;82.30;;;;;;5070153;28;20040;-74
2021/06/26 04:13:12;;;;;;;9.35;6.47;;;20.40;82.20;;;;;;5066654;28;20040;-74
2021/06/26 04:15:58;;;;;;;6.85;5.68;;;20.50;82.50;;;;;;5068358;28;20025;-74
2021/06/26 04:18:44;;;;;;;8.60;5.85;;;20.50;82.60;;;;;;5073375;28;20067;-74
2021/06/26 04:21:30;;;;;;;8.88;5.65;;;20.60;82.40;;;;;;5068991;28;20019;-74
2021/06/26 04:24:16;;;;;;;10.98;6.22;;;20.60;82.40;;;;;;5066422;28;20077;-74
2021/06/26 04:27:02;;;;;;;8.00;7.13;;;20.60;82.20;;;;;;5054639;28;20073;-73
2021/06/26 04:29:48;;;;;;;8.95;7.00;;;20.70;82.40;;;;;;5068301;28;20021;-75
2021/06/26 04:32:36;;;;;;;8.93;6.25;;;20.70;82.40;;;;;;5058345;28;20503;-77
2021/06/26 04:35:24;;;;;;;10.48;7.18;;;20.70;82.40;;;;;;5089727;28;20143;-77
2021/06/26 04:38:10;;;;;;;10.55;6.53;;;20.80;82.60;;;;;;5086897;28;20020;-77
2021/06/26 04:40:56;;;;;;;7.43;5.85;;;20.80;82.20;;;;;;5088361;28;20275;-74
2021/06/26 04:43:42;;;;;;;8.55;6.38;;;20.90;82.70;;;;;;5083433;28;20024;-74
2021/06/26 04:46:28;;;;;;;8.18;6.68;;;21.00;82.60;;;;;;5090274;28;20062;-72
2021/06/26 04:49:13;;;;;;;7.55;6.72;;;21.00;82.90;;;;;;5089776;28;20484;-74
2021/06/26 04:51:59;;;;;;;8.95;6.80;;;21.20;82.80;;;;;;5082338;28;20500;-74
2021/06/26 04:54:45;;;;;;;8.60;6.75;;;21.20;82.20;;;;;;5049078;28;20465;-73
2021/06/26 04:57:31;;;;;;;9.50;6.53;;;21.20;82.00;;;;;;5062753;28;20036;-74
2021/06/26 05:00:18;;;;;;;7.63;6.38;;;21.30;82.70;;;;;;5089530;28;20016;-72
2021/06/26 05:03:04;;;;;;;9.57;6.28;;;21.30;82.80;;;;;;5071861;28;20043;-73
2021/06/26 05:05:51;;;;;;;10.13;6.97;;;21.40;82.30;;;;;;5089086;28;20595;-74
2021/06/26 05:08:36;;;;;;;9.55;6.80;;;21.50;82.20;;;;;;5050333;28;20133;-68
2021/06/26 05:11:22;;;;;;;7.18;6.05;;;21.60;82.40;;;;;;5052897;28;20075;-69
2021/06/26 05:14:09;;;;;;;7.47;6.43;;;21.60;82.60;;;;;;5073328;28;20393;-70
2021/06/26 05:16:55;;;;;;;7.55;5.97;;;21.70;82.40;;;;;;5072143;28;20043;-69
2021/06/26 05:19:41;;;;;;;7.50;5.60;;;21.90;81.50;;;;;;5072214;28;20017;-67
2021/06/26 05:22:27;;;;;;;7.75;5.50;;;21.90;81.60;;;;;;5072489;28;20020;-71
2021/06/26 05:25:12;;;;;;;7.80;5.85;;;22.00;81.40;;;;;;5072677;28;20075;-70
2021/06/26 05:27:58;;;;;;;8.93;6.53;;;22.10;81.10;;;;;;5056717;28;20029;-71
2021/06/26 05:30:45;;;;;;;8.63;5.65;;;22.30;81.10;;;;;;5070753;28;20021;-70
2021/06/26 05:33:31;;;;;;;8.05;6.13;;;22.40;81.10;;;;;;5070786;28;20036;-71
2021/06/26 05:36:17;;;;;;;8.70;5.90;;;22.50;80.20;;;;;;5072960;28;20032;-70
2021/06/26 05:39:01;;;;;;;9.00;6.13;;;22.60;80.50;;;;;;5056951;28;20028;-72
2021/06/26 05:41:45;;;;;;;8.80;5.57;;;22.80;79.90;;;;;;5071838;28;20560;-72
2021/06/26 05:44:29;;;;;;;7.88;6.95;;;22.80;80.10;;;;;;5072434;28;20097;-71
2021/06/26 05:47:13;;;;;;;8.73;6.68;;;22.90;79.00;;;;;;5075750;28;20096;-71
2021/06/26 05:49:57;;;;;;;9.38;6.38;;;22.90;78.80;;;;;;5084804;28;20031;-71
2021/06/26 05:52:53;;;;;;;7.68;6.30;;;22.90;78.40;;;;;;5072834;28;20093;-72
2021/06/26 05:55:37;;;;;;;7.50;6.03;;;22.90;78.10;;;;;;5073843;28;20074;-72
2021/06/26 05:58:27;;;;;;;6.75;5.60;;;22.90;78.10;;;;;;5083317;28;20047;-73
2021/06/26 06:01:11;;;;;;;7.60;5.85;;;22.90;77.90;;;;;;5092759;28;20553;-72
2021/06/26 06:03:55;;;;;;;10.18;6.50;;;22.90;78.20;;;;;;5089793;28;20104;-70
2021/06/26 06:06:39;;;;;;;8.27;5.75;;;23.00;78.10;;;;;;5092001;28;20051;-73
2021/06/26 06:09:24;;;;;;;7.47;5.85;;;23.00;78.10;;;;;;5069155;28;20089;-72
2021/06/26 06:12:08;;;;;;;8.52;6.40;;;23.00;78.80;;;;;;5071212;28;20035;-72
2021/06/26 06:14:52;;;;;;;7.20;5.50;;;23.00;78.00;;;;;;5072286;28;20435;-74
2021/06/26 06:17:36;;;;;;;9.20;6.47;;;23.10;78.30;;;;;;5076090;28;20043;-74
2021/06/26 06:20:20;;;;;;;;;;;23.20;77.50;;;;;;5073595;28;20491;-72
2021/06/26 06:23:05;;;;;;;7.10;6.10;;;23.20;77.80;;;;;;5072127;28;20327;-72
2021/06/26 06:25:49;;;;;;;;;;;23.20;77.70;;;;;;5072788;28;20396;-71
2021/06/26 06:28:33;;;;;;;8.15;5.85;;;23.20;77.90;;;;;;5072003;28;19915;-70
2021/06/26 06:31:17;;;;;;;7.43;5.40;;;23.20;78.30;;;;;;5072533;28;20086;-69
2021/06/26 06:34:01;;;;;;;7.80;6.05;;;23.30;78.20;;;;;;5091003;28;20396;-70
2021/06/26 06:36:45;;;;;;;9.82;5.78;;;23.40;78.00;;;;;;5074487;28;20047;-70
2021/06/26 06:39:29;;;;;;;10.82;5.63;;;23.40;77.90;;;;;;5090200;28;20031;-70
2021/06/26 06:42:13;;;;;;;6.85;6.13;;;23.50;77.60;;;;;;5087247;28;20122;-70
2021/06/26 06:44:57;;;;;;;10.07;6.17;;;23.50;76.50;;;;;;5093056;28;20039;-70
2021/06/26 06:47:41;;;;;;;7.38;6.07;;;23.50;76.80;;;;;;5082596;28;20305;-70
2021/06/26 06:50:26;;;;;;;8.38;6.43;;;23.50;76.10;;;;;;5072369;28;20036;-71
2021/06/26 06:53:10;;;;;;;7.47;5.90;;;23.50;76.10;;;;;;5082517;28;20395;-70
2021/06/26 06:55:58;;;;;;;8.50;6.27;;;23.50;76.00;;;;;;5074725;28;20051;-70
2021/06/26 06:58:42;;;;;;;10.05;6.25;;;23.40;76.00;;;;;;5086816;28;20301;-71
2021/06/26 07:01:27;;;;;;;9.73;6.22;;;23.40;76.40;;;;;;5092593;28;20039;-70
2021/06/26 07:04:12;;;;;;;8.02;6.00;;;23.50;76.20;;;;;;5089517;28;20104;-71
2021/06/26 07:06:57;;;;;;;7.88;5.95;;;23.50;76.20;;;;;;5087688;28;20082;-70
2021/06/26 07:09:41;;;;;;;8.68;6.03;;;23.50;75.80;;;;;;5071389;28;20190;-71
2021/06/26 07:12:26;;;;;;;9.38;6.00;;;23.60;76.00;;;;;;5071150;28;20089;-71
2021/06/26 07:15:11;;;;;;;7.40;5.85;;;23.60;77.10;;;;;;5072187;28;20031;-72
2021/06/26 07:17:55;;;;;;;8.05;5.57;;;23.60;76.90;;;;;;5071596;28;20513;-70
2021/06/26 07:20:40;;;;;;;6.95;5.43;;;23.70;77.20;;;;;;5068915;28;20040;-69
2021/06/26 07:23:24;;;;;;;10.73;6.65;;;23.60;76.70;;;;;;5076060;28;20549;-72
2021/06/26 07:26:09;;;;;;;6.30;5.63;;;23.70;77.10;;;;;;5070792;28;20071;-68
2021/06/26 07:28:53;;;;;;;;;;;23.70;76.00;;;;;;5066616;28;20120;-70
2021/06/26 07:31:37;;;;;;;6.88;5.15;;;23.70;75.20;;;;;;5075931;28;19915;-70
2021/06/26 07:34:21;;;;;;;6.43;5.13;;;23.70;73.90;;;;;;5062794;28;20118;-70
2021/06/26 07:37:06;;;;;;;9.40;5.95;;;23.70;75.60;;;;;;5062239;28;20043;-70
2021/06/26 07:39:47;;;;;;;6.72;5.30;;;23.80;74.50;;;;;;5069136;28;20387;-71
2021/06/26 07:42:31;;;;;;;6.97;5.05;;;23.80;74.30;;;;;;5073480;28;20103;-70
2021/06/26 07:45:18;;;;;;;4.72;3.95;;;23.80;69.70;;;;;;5076224;28;20480;-71
2021/06/26 07:48:04;;;;;;;6.10;4.32;;;23.90;69.60;;;;;;5079459;28;20038;-71
2021/06/26 07:50:51;;;;;;;5.40;4.53;;;23.90;68.20;;;;;;5059511;28;20040;-71
2021/06/26 07:53:37;;;;;;;5.13;4.28;;;23.90;68.80;;;;;;5064995;28;20032;-71
2021/06/26 07:56:23;;;;;;;6.55;4.68;;;24.00;69.30;;;;;;5066600;28;20032;-71
2021/06/26 07:59:09;;;;;;;7.35;5.53;;;24.00;68.30;;;;;;5073815;28;20031;-71
2021/06/26 08:01:55;;;;;;;5.70;4.70;;;24.10;66.80;;;;;;5071228;28;20048;-71
2021/06/26 08:04:40;;;;;;;7.45;4.82;;;24.10;66.50;;;;;;5067568;28;20036;-71
2021/06/26 08:07:26;;;;;;;7.15;4.80;;;24.00;66.80;;;;;;5063872;28;20480;-71
2021/06/26 08:10:12;;;;;;;6.45;4.88;;;24.00;65.10;;;;;;5070421;28;20051;-71
2021/06/26 08:12:58;;;;;;;5.68;4.47;;;24.00;64.30;;;;;;5069170;28;20684;-70
2021/06/26 08:15:46;;;;;;;5.82;4.03;;;24.00;63.60;;;;;;5084741;28;20029;-71
2021/06/26 08:18:32;;;;;;;6.38;4.93;;;24.10;61.60;;;;;;5069817;28;20039;-71
2021/06/26 08:21:20;;;;;;;6.13;4.82;;;24.10;61.90;;;;;;5068483;28;20029;-71
2021/06/26 08:24:06;;;;;;;6.25;4.45;;;24.10;61.00;;;;;;5069446;28;20484;-72
2021/06/26 08:26:52;;;;;;;6.22;4.53;;;24.10;61.00;;;;;;5070419;28;20034;-71
2021/06/26 08:29:37;;;;;;;5.25;4.13;;;24.20;61.70;;;;;;5090169;28;20027;-71
2021/06/26 08:32:23;;;;;;;6.75;4.05;;;24.30;61.00;;;;;;5074553;28;20028;-70
2021/06/26 08:35:10;;;;;;;5.00;4.05;;;24.40;61.80;;;;;;5071224;28;20476;-72
2021/06/26 08:37:56;;;;;;;7.75;4.40;;;24.60;61.10;;;;;;5067438;28;20047;-71
2021/06/26 08:40:42;;;;;;;4.82;4.32;;;24.80;63.40;;;;;;5070550;28;20033;-72
2021/06/26 08:43:28;;;;;;;6.90;4.50;;;24.90;63.30;;;;;;5074076;28;20385;-72
2021/06/26 08:46:16;;;;;;;5.57;4.35;;;25.10;59.90;;;;;;5067734;28;20033;-72
2021/06/26 08:49:02;;;;;;;5.80;4.20;;;25.10;59.10;;;;;;5068624;28;20040;-72
2021/06/26 08:51:48;;;;;;;5.90;3.80;;;25.20;60.70;;;;;;5068370;28;20051;-72
2021/06/26 08:54:34;;;;;;;6.38;4.97;;;25.30;58.80;;;;;;5044832;28;20413;-71
2021/06/26 08:57:34;;;;;;;6.32;4.65;;;25.20;58.60;;;;;;5066499;28;20047;-71
2021/06/26 09:00:25;;;;;;;11.13;5.18;;;25.10;58.60;;;;;;5050457;28;20051;-71
2021/06/26 09:03:13;;;;;;;5.20;4.18;;;25.10;59.50;;;;;;5072022;28;20024;-71
2021/06/26 09:06:04;;;;;;;6.38;4.13;;;25.00;59.50;;;;;;5083780;28;20052;-72
2021/06/26 09:08:50;;;;;;;6.57;4.10;;;25.00;59.30;;;;;;5072470;28;20484;-71
2021/06/26 09:11:36;;;;;;;6.65;5.05;;;24.90;59.90;;;;;;5072570;28;20032;-71
2021/06/26 09:14:21;;;;;;;7.43;4.85;;;25.00;60.10;;;;;;5060865;28;20463;-72
2021/06/26 09:17:07;;;;;;;5.40;4.40;;;25.10;59.60;;;;;;5053168;28;20040;-71
2021/06/26 09:19:56;;;;;;;6.90;4.20;;;25.20;59.40;;;;;;5063266;28;20035;-71
2021/06/26 09:22:49;;;;;;;6.28;4.95;;;25.30;59.60;;;;;;5061839;28;20456;-72
2021/06/26 09:25:37;;;;;;;4.95;4.07;;;25.50;59.80;;;;;;5066909;28;20028;-72
2021/06/26 09:28:25;;;;;;;6.60;4.18;;;25.60;59.30;;;;;;5074177;28;20121;-71
2021/06/26 09:31:15;;;;;;;6.93;4.53;;;25.70;59.30;;;;;;5069484;28;20024;-72
2021/06/26 09:34:03;;;;;;;5.53;4.57;;;25.90;56.60;;;;;;5069258;28;20082;-72
2021/06/26 09:37:00;;;;;;;6.93;4.20;;;26.00;53.10;;;;;;5083665;28;20461;-71
2021/06/26 09:39:47;;;;;;;4.32;3.47;;;26.00;51.30;;;;;;5073807;28;20020;-70
2021/06/26 09:42:36;;;;;;;4.35;3.55;;;26.10;52.70;;;;;;5077175;28;20111;-71
2021/06/26 09:45:21;;;;;;;5.38;3.85;;;26.20;51.20;;;;;;5059277;28;20044;-71
2021/06/26 09:48:06;;;;;;;5.70;3.20;;;26.40;51.20;;;;;;5078425;28;20023;-70
2021/06/26 09:50:50;;;;;;;6.68;4.68;;;26.50;51.60;;;;;;5072529;28;20554;-72
2021/06/26 09:53:35;;;;;;;5.70;4.03;;;26.60;50.60;;;;;;5070475;28;20157;-72
2021/06/26 09:56:19;;;;;;;4.25;3.70;;;26.50;49.40;;;;;;5071119;28;20055;-72
2021/06/26 09:59:04;;;;;;;4.72;4.13;;;26.50;50.50;;;;;;5071298;28;20039;-71
2021/06/26 10:01:49;;;;;;;5.00;4.50;;;26.50;50.60;;;;;;5069607;28;20030;-72
2021/06/26 10:04:35;;;;;;;4.80;3.97;;;26.40;49.40;;;;;;5075074;28;20047;-75
2021/06/26 10:07:19;;;;;;;5.30;4.38;;;26.30;49.70;;;;;;5070114;28;20031;-72
2021/06/26 10:10:04;;;;;;;6.15;4.45;;;26.20;50.20;;;;;;5071742;28;20448;-72
2021/06/26 10:12:50;;;;;;;6.13;4.45;;;26.20;50.40;;;;;;5059390;28;20048;-73
2021/06/26 10:15:34;;;;;;;9.45;4.72;;;26.00;50.60;;;;;;5061473;28;20035;-75
2021/06/26 10:18:18;;;;;;;5.50;4.40;;;26.00;51.30;;;;;;5076556;28;20052;-73
2021/06/26 10:21:03;;;;;;;5.40;4.15;;;25.90;50.90;;;;;;5061144;28;20639;-73
2021/06/26 10:23:47;;;;;;;;;;;25.80;51.40;;;;;;5066346;28;20056;-73
2021/06/26 10:26:13;;;;;;;9.57;4.65;;;25.80;52.10;;;;;;5072296;28;20369;-72
2021/06/26 10:28:49;;;;;;;7.72;4.90;;;25.90;52.30;;;;;;5080858;28;20020;-72
2021/06/26 10:31:16;;;;;;;6.03;4.28;;;26.00;51.20;;;;;;5059251;28;20081;-72
2021/06/26 10:33:44;;;;;;;4.95;4.15;;;26.10;50.80;;;;;;5083448;28;20044;-72
2021/06/26 10:36:09;;;;;;;5.03;4.20;;;26.20;50.10;;;;;;5070389;28;20074;-72
2021/06/26 10:38:45;;;;;;;5.13;4.05;;;26.10;49.90;;;;;;5081801;28;20400;-73
2021/06/26 10:41:19;;;;;;;5.03;4.30;;;26.20;49.70;;;;;;5073326;28;20043;-74
2021/06/26 10:43:59;;;;;;;7.57;3.78;;;26.30;49.20;;;;;;5068666;28;20441;-72
2021/06/26 10:46:47;;;;;;;4.65;4.25;;;26.20;48.50;;;;;;5063377;28;20058;-73
2021/06/26 10:49:31;;;;;;;5.72;4.13;;;26.20;49.10;;;;;;5068015;28;20038;-71
2021/06/26 10:52:18;;;;;;;8.23;4.13;;;26.10;48.80;;;;;;5073496;28;20120;-72
2021/06/26 10:55:02;;;;;;;4.97;3.95;;;26.20;49.30;;;;;;5087366;28;20424;-73
2021/06/26 10:57:46;;;;;;;4.63;3.58;;;26.20;48.30;;;;;;5077421;28;20078;-73
2021/06/26 11:00:37;;;;;;;5.88;3.10;;;26.20;48.10;;;;;;5072285;28;20093;-73
2021/06/26 11:03:24;;;;;;;3.50;2.95;;;26.20;47.00;;;;;;5072165;28;20119;-73
2021/06/26 11:06:16;;;;;;;4.85;2.80;;;26.10;45.20;;;;;;5056785;28;20094;-73
2021/06/26 11:09:07;;;;;;;5.53;3.05;;;26.00;44.70;;;;;;5070821;28;20236;-72
2021/06/26 11:11:51;;;;;;;4.18;3.20;;;26.00;44.60;;;;;;5070553;28;20039;-73
2021/06/26 11:14:35;;;;;;;3.03;2.65;;;26.00;44.60;;;;;;5072470;28;20034;-72
2021/06/26 11:17:22;;;;;;;3.90;2.92;;;26.00;44.00;;;;;;5085437;28;20082;-72
2021/06/26 11:20:13;;;;;;;5.18;3.25;;;26.00;44.20;;;;;;5092169;28;20127;-72
2021/06/26 11:22:59;;;;;;;3.45;3.00;;;26.10;45.40;;;;;;5078572;28;20077;-71
2021/06/26 11:25:45;;;;;;;4.63;3.05;;;26.20;45.80;;;;;;5072653;28;20197;-72
2021/06/26 11:28:29;;;;;;;5.00;2.97;;;26.20;45.30;;;;;;5070962;28;20047;-72
2021/06/26 11:31:14;;;;;;;;;;;26.30;45.00;;;;;;5072557;28;20027;-72
2021/06/26 11:33:58;;;;;;;4.60;3.20;;;26.30;46.00;;;;;;5086644;28;19964;-72
2021/06/26 11:36:42;;;;;;;3.47;2.67;;;26.30;44.10;;;;;;5090030;28;20046;-72
2021/06/26 11:39:26;;;;;;;;;;;26.30;44.30;;;;;;5052542;28;20075;-73
2021/06/26 11:42:20;;;;;;;5.93;2.90;;;26.40;43.80;;;;;;5062233;28;19939;-73
2021/06/26 11:45:11;;;;;;;3.92;2.92;;;26.40;43.50;;;;;;5065146;28;20075;-72
2021/06/26 11:48:09;;;;;;;3.40;2.92;;;26.50;43.90;;;;;;5066519;28;20115;-72
2021/06/26 11:51:05;;;;;;;3.20;2.60;;;26.60;43.20;;;;;;5071623;28;20039;-73
2021/06/26 11:53:51;;;;;;;5.63;2.70;;;26.80;42.90;;;;;;5070630;28;20089;-73
2021/06/26 11:56:37;;;;;;;3.80;2.65;;;26.80;41.90;;;;;;5070633;28;20420;-72
2021/06/26 11:59:22;;;;;;;3.20;2.72;;;26.90;43.10;;;;;;5051247;28;20031;-72
2021/06/26 12:02:06;;;;;;;3.65;2.58;;;27.10;42.20;;;;;;5054847;28;20115;-72
2021/06/26 12:04:50;;;;;;;;;;;27.20;42.20;;;;;;5062790;28;20050;-71
2021/06/26 12:07:36;;;;;;;5.28;2.58;;;27.20;42.00;;;;;;5070837;28;20418;-72
2021/06/26 12:10:21;;;;;;;3.67;2.40;;;27.20;40.50;;;;;;5070424;28;20039;-73
2021/06/26 12:13:06;;;;;;;3.00;2.20;;;27.30;40.60;;;;;;5065813;28;20324;-72
2021/06/26 12:15:50;;;;;;;2.55;2.15;;;27.30;39.60;;;;;;5066786;28;20059;-72
2021/06/26 12:18:45;;;;;;;;;;;27.20;38.90;;;;;;5072172;28;20438;-72
2021/06/26 12:21:46;;;;;;;3.17;2.28;;;27.10;40.80;;;;;;5098443;28;19910;-73
2021/06/26 12:24:39;;;;;;;5.60;2.50;;;27.00;39.90;;;;;;5056983;28;20052;-73
2021/06/26 12:27:24;;;;;;;3.47;2.42;;;26.80;39.40;;;;;;5071571;28;20554;-73
2021/06/26 12:30:16;;;;;;;4.25;2.30;;;26.70;39.80;;;;;;5077583;28;20079;-73
2021/06/26 12:33:05;;;;;;;6.68;2.20;;;26.70;40.00;;;;;;5078131;28;20557;-73
2021/06/26 12:35:49;;;;;;;3.60;2.22;;;26.80;40.50;;;;;;5094654;28;20035;-72
2021/06/26 12:38:35;;;;;;;2.42;2.08;;;26.90;40.20;;;;;;5079698;28;20047;-72
2021/06/26 12:41:30;;;;;;;4.28;1.98;;;27.00;40.00;;;;;;5097935;28;20058;-72
2021/06/26 12:44:19;;;;;;;2.50;1.98;;;27.10;39.20;;;;;;5067781;28;20094;-73
2021/06/26 12:47:03;;;;;;;4.30;2.10;;;27.20;38.90;;;;;;5060887;28;20123;-73
2021/06/26 12:49:51;;;;;;;;;;;27.30;38.50;;;;;;5078490;28;20027;-72
2021/06/26 12:52:35;;;;;;;2.67;2.08;;;27.40;40.10;;;;;;5083284;28;19915;-72
2021/06/26 12:55:21;;;;;;;3.53;2.15;;;27.50;39.00;;;;;;5098131;28;20043;-72
2021/06/26 12:58:09;;;;;;;5.53;2.08;;;27.60;39.10;;;;;;5084414;28;20039;-73
2021/06/26 13:00:56;;;;;;;2.55;2.00;;;27.80;39.10;;;;;;5077868;28;20024;-73
2021/06/26 13:03:53;;;;;;;2.70;2.00;;;28.00;38.40;;;;;;5091759;28;20085;-71
2021/06/26 13:06:48;;;;;;;9.50;2.20;;;28.10;38.80;;;;;;5096264;28;20062;-71
2021/06/26 13:09:49;;;;;;;3.33;1.88;;;28.30;38.40;;;;;;5080116;28;20062;-72
2021/06/26 13:12:33;;;;;;;2.90;1.92;;;28.30;36.90;;;;;;5089791;28;20150;-72
2021/06/26 13:15:17;;;;;;;3.20;1.88;;;28.40;36.40;;;;;;5077654;28;20039;-73
2021/06/26 13:18:01;;;;;;;4.25;1.95;;;28.50;37.00;;;;;;5076373;28;20059;-72
2021/06/26 13:20:45;;;;;;;2.20;1.75;;;28.60;36.00;;;;;;5077487;28;20043;-73
2021/06/26 13:23:29;;;;;;;2.95;1.90;;;28.50;36.50;;;;;;5084019;28;20344;-72
2021/06/26 13:26:13;;;;;;;2.58;2.15;;;28.70;35.70;;;;;;5057289;28;20043;-73
2021/06/26 13:28:57;;;;;;;3.53;2.35;;;28.80;36.00;;;;;;5075761;28;20063;-73
2021/06/26 13:31:41;;;;;;;2.03;1.63;;;28.90;36.60;;;;;;5072648;28;20028;-74
2021/06/26 13:34:26;;;;;;;2.58;1.77;;;29.00;36.10;;;;;;5068939;28;20031;-72
2021/06/26 13:36:52;;;;;;;2.30;1.60;;;29.10;35.60;;;;;;5069254;28;20448;-73
2021/06/26 13:39:17;;;;;;;2.55;1.85;;;29.30;35.10;;;;;;5078570;28;20069;-73
2021/06/26 13:42:02;;;;;;;2.95;2.05;;;29.30;33.70;;;;;;5081747;28;20115;-72
2021/06/26 13:44:46;;;;;;;2.33;1.95;;;29.30;33.30;;;;;;5078317;28;20293;-74
2021/06/26 13:47:30;;;;;;;4.28;2.05;;;29.30;33.40;;;;;;5080256;28;20093;-74
2021/06/26 13:50:14;;;;;;;2.90;2.38;;;29.30;35.00;;;;;;5076428;28;20499;-74
2021/06/26 13:52:58;;;;;;;4.35;1.83;;;29.40;35.20;;;;;;5070149;28;20097;-72
2021/06/26 13:55:42;;;;;;;3.10;2.22;;;29.50;35.70;;;;;;5067380;28;20093;-73
2021/06/26 13:58:27;;;;;;;3.13;2.40;;;29.60;35.40;;;;;;5074625;28;20114;-74
2021/06/26 14:01:11;;;;;;;4.32;2.50;;;29.70;35.30;;;;;;5081483;28;20040;-72
2021/06/26 14:03:55;;;;;;;2.78;1.88;;;29.90;35.30;;;;;;5084733;28;20132;-72
2021/06/26 14:06:40;;;;;;;2.95;2.13;;;29.80;34.30;;;;;;5069602;28;20036;-73
2021/06/26 14:09:24;;;;;;;3.70;2.63;;;29.70;35.10;;;;;;5083956;28;20039;-73
2021/06/26 14:12:08;;;;;;;6.07;3.08;;;29.50;35.20;;;;;;5083833;28;20031;-72
2021/06/26 14:14:53;;;;;;;4.22;2.75;;;29.40;35.50;;;;;;5079620;28;20507;-73
2021/06/26 14:17:37;;;;;;;5.50;2.67;;;29.60;35.60;;;;;;5070965;28;20043;-73
2021/06/26 14:20:21;;;;;;;4.28;2.30;;;29.70;36.10;;;;;;5078968;28;20380;-73